sensor_id;sensor_type;location;lat;lon;timestamp;P1;durP1;ratioP1;P2;durP2;ratioP2
62880;SDS011;48969;49.934;8.596;2023-03-16T00:01:58;1.85;;;1.75;;
62880;SDS011;48969;49.934;8.596;2023-03-16T00:04:23;1.35;;;0.73;;
62880;SDS011;48969;49.934;8.596;2023-03-16T00:06:48;4.00;;;2.17;;
62880;SDS011;48969;49.934;8.596;2023-03-16T00:09:13;0.73;;;0.73;;
62880;SDS011;48969;49.934;8.596;2023-03-16T00:11:38;0.90;;;0.90;;
62880;SDS011;48969;49.934;8.596;2023-03-16T00:14:04;0.40;;;0.40;;
62880;SDS011;48969;49.934;8.596;2023-03-16T00:16:29;0.63;;;0.63;;
62880;SDS011;48969;49.934;8.596;2023-03-16T00:18:54;0.35;;;0.35;;
62880;SDS011;48969;49.934;8.596;2023-03-16T00:21:19;2.15;;;1.42;;
62880;SDS011;48969;49.934;8.596;2023-03-16T00:23:45;0.75;;;0.75;;
62880;SDS011;48969;49.934;8.596;2023-03-16T00:26:10;0.55;;;0.55;;
62880;SDS011;48969;49.934;8.596;2023-03-16T00:28:36;0.43;;;0.40;;
62880;SDS011;48969;49.934;8.596;2023-03-16T00:31:06;1.20;;;1.20;;
62880;SDS011;48969;49.934;8.596;2023-03-16T00:33:31;0.90;;;0.90;;
62880;SDS011;48969;49.934;8.596;2023-03-16T00:36:02;2.55;;;0.85;;
62880;SDS011;48969;49.934;8.596;2023-03-16T00:38:29;0.93;;;0.73;;
62880;SDS011;48969;49.934;8.596;2023-03-16T00:40:55;0.57;;;0.57;;
62880;SDS011;48969;49.934;8.596;2023-03-16T00:43:20;0.50;;;0.50;;
62880;SDS011;48969;49.934;8.596;2023-03-16T00:45:45;0.73;;;0.73;;
62880;SDS011;48969;49.934;8.596;2023-03-16T00:48:10;10.50;;;2.58;;
62880;SDS011;48969;49.934;8.596;2023-03-16T00:50:36;0.67;;;0.67;;
62880;SDS011;48969;49.934;8.596;2023-03-16T00:53:01;0.63;;;0.60;;
62880;SDS011;48969;49.934;8.596;2023-03-16T00:55:26;2.50;;;2.30;;
62880;SDS011;48969;49.934;8.596;2023-03-16T00:57:52;4.43;;;1.77;;
62880;SDS011;48969;49.934;8.596;2023-03-16T01:00:18;1.17;;;1.17;;
62880;SDS011;48969;49.934;8.596;2023-03-16T01:02:45;1.77;;;1.67;;
62880;SDS011;48969;49.934;8.596;2023-03-16T01:05:10;0.77;;;0.77;;
62880;SDS011;48969;49.934;8.596;2023-03-16T01:07:37;1.02;;;1.02;;
62880;SDS011;48969;49.934;8.596;2023-03-16T01:10:02;0.68;;;0.68;;
62880;SDS011;48969;49.934;8.596;2023-03-16T01:12:27;0.83;;;0.50;;
62880;SDS011;48969;49.934;8.596;2023-03-16T01:14:53;0.53;;;0.53;;
62880;SDS011;48969;49.934;8.596;2023-03-16T01:17:19;0.50;;;0.50;;
62880;SDS011;48969;49.934;8.596;2023-03-16T01:19:46;1.03;;;1.03;;
62880;SDS011;48969;49.934;8.596;2023-03-16T01:22:12;0.87;;;0.87;;
62880;SDS011;48969;49.934;8.596;2023-03-16T01:24:37;1.97;;;1.87;;
62880;SDS011;48969;49.934;8.596;2023-03-16T01:27:03;1.07;;;0.93;;
62880;SDS011;48969;49.934;8.596;2023-03-16T01:29:29;1.15;;;1.05;;
62880;SDS011;48969;49.934;8.596;2023-03-16T01:31:54;0.80;;;0.80;;
62880;SDS011;48969;49.934;8.596;2023-03-16T01:34:20;1.13;;;1.13;;
62880;SDS011;48969;49.934;8.596;2023-03-16T01:36:45;0.65;;;0.65;;
62880;SDS011;48969;49.934;8.596;2023-03-16T01:39:11;0.93;;;0.93;;
62880;SDS011;48969;49.934;8.596;2023-03-16T01:41:37;0.83;;;0.83;;
62880;SDS011;48969;49.934;8.596;2023-03-16T01:44:03;1.03;;;1.03;;
62880;SDS011;48969;49.934;8.596;2023-03-16T01:46:29;3.83;;;1.70;;
62880;SDS011;48969;49.934;8.596;2023-03-16T01:49:05;0.55;;;0.55;;
62880;SDS011;48969;49.934;8.596;2023-03-16T01:54:02;4.40;;;1.77;;
62880;SDS011;48969;49.934;8.596;2023-03-16T01:56:30;0.40;;;0.40;;
62880;SDS011;48969;49.934;8.596;2023-03-16T01:58:58;7.13;;;1.40;;
62880;SDS011;48969;49.934;8.596;2023-03-16T02:01:25;1.37;;;1.20;;
62880;SDS011;48969;49.934;8.596;2023-03-16T02:03:53;1.87;;;1.70;;
62880;SDS011;48969;49.934;8.596;2023-03-16T02:06:20;0.77;;;0.70;;
62880;SDS011;48969;49.934;8.596;2023-03-16T02:08:47;1.50;;;1.40;;
62880;SDS011;48969;49.934;8.596;2023-03-16T02:11:13;0.77;;;0.77;;
62880;SDS011;48969;49.934;8.596;2023-03-16T02:13:42;0.50;;;0.50;;
62880;SDS011;48969;49.934;8.596;2023-03-16T02:16:07;0.47;;;0.47;;
62880;SDS011;48969;49.934;8.596;2023-03-16T02:18:32;0.40;;;0.40;;
62880;SDS011;48969;49.934;8.596;2023-03-16T02:21:04;0.63;;;0.63;;
62880;SDS011;48969;49.934;8.596;2023-03-16T02:23:30;0.40;;;0.40;;
62880;SDS011;48969;49.934;8.596;2023-03-16T02:26:05;6.20;;;2.20;;
62880;SDS011;48969;49.934;8.596;2023-03-16T02:28:37;1.23;;;1.13;;
62880;SDS011;48969;49.934;8.596;2023-03-16T02:31:09;1.90;;;1.80;;
62880;SDS011;48969;49.934;8.596;2023-03-16T02:33:34;0.80;;;0.80;;
62880;SDS011;48969;49.934;8.596;2023-03-16T02:36:00;0.80;;;0.80;;
62880;SDS011;48969;49.934;8.596;2023-03-16T02:38:25;1.10;;;1.10;;
62880;SDS011;48969;49.934;8.596;2023-03-16T02:40:55;1.28;;;1.18;;
62880;SDS011;48969;49.934;8.596;2023-03-16T02:43:22;0.90;;;0.90;;
62880;SDS011;48969;49.934;8.596;2023-03-16T02:45:50;2.72;;;2.53;;
62880;SDS011;48969;49.934;8.596;2023-03-16T02:48:20;1.05;;;0.85;;
62880;SDS011;48969;49.934;8.596;2023-03-16T02:50:47;1.00;;;0.95;;
62880;SDS011;48969;49.934;8.596;2023-03-16T02:53:13;2.23;;;2.00;;
62880;SDS011;48969;49.934;8.596;2023-03-16T02:55:39;2.23;;;0.90;;
62880;SDS011;48969;49.934;8.596;2023-03-16T02:58:04;1.48;;;1.38;;
62880;SDS011;48969;49.934;8.596;2023-03-16T03:00:29;1.24;;;1.14;;
62880;SDS011;48969;49.934;8.596;2023-03-16T03:02:54;1.65;;;1.45;;
62880;SDS011;48969;49.934;8.596;2023-03-16T03:05:19;0.90;;;0.90;;
62880;SDS011;48969;49.934;8.596;2023-03-16T03:07:45;1.88;;;1.25;;
62880;SDS011;48969;49.934;8.596;2023-03-16T03:10:10;1.60;;;1.50;;
62880;SDS011;48969;49.934;8.596;2023-03-16T03:12:35;1.93;;;0.80;;
62880;SDS011;48969;49.934;8.596;2023-03-16T03:15:00;0.82;;;0.82;;
62880;SDS011;48969;49.934;8.596;2023-03-16T03:17:26;0.90;;;0.90;;
62880;SDS011;48969;49.934;8.596;2023-03-16T03:19:55;1.27;;;1.23;;
62880;SDS011;48969;49.934;8.596;2023-03-16T03:22:20;3.30;;;1.02;;
62880;SDS011;48969;49.934;8.596;2023-03-16T03:24:45;0.95;;;0.95;;
62880;SDS011;48969;49.934;8.596;2023-03-16T03:27:10;1.27;;;0.95;;
62880;SDS011;48969;49.934;8.596;2023-03-16T03:29:35;0.83;;;0.60;;
62880;SDS011;48969;49.934;8.596;2023-03-16T03:32:01;1.57;;;1.30;;
62880;SDS011;48969;49.934;8.596;2023-03-16T03:34:27;8.23;;;7.50;;
62880;SDS011;48969;49.934;8.596;2023-03-16T03:36:52;0.60;;;0.60;;
62880;SDS011;48969;49.934;8.596;2023-03-16T03:39:18;0.60;;;0.60;;
62880;SDS011;48969;49.934;8.596;2023-03-16T03:41:43;1.60;;;1.33;;
62880;SDS011;48969;49.934;8.596;2023-03-16T03:44:08;0.83;;;0.83;;
62880;SDS011;48969;49.934;8.596;2023-03-16T03:46:33;0.40;;;0.40;;
62880;SDS011;48969;49.934;8.596;2023-03-16T03:48:58;0.82;;;0.80;;
62880;SDS011;48969;49.934;8.596;2023-03-16T03:51:27;0.87;;;0.80;;
62880;SDS011;48969;49.934;8.596;2023-03-16T03:53:53;0.50;;;0.50;;
62880;SDS011;48969;49.934;8.596;2023-03-16T03:56:18;0.95;;;0.95;;
62880;SDS011;48969;49.934;8.596;2023-03-16T03:58:43;4.57;;;1.07;;
62880;SDS011;48969;49.934;8.596;2023-03-16T04:01:08;1.73;;;1.63;;
62880;SDS011;48969;49.934;8.596;2023-03-16T04:03:33;1.48;;;1.38;;
62880;SDS011;48969;49.934;8.596;2023-03-16T04:05:58;1.42;;;1.33;;
62880;SDS011;48969;49.934;8.596;2023-03-16T04:08:24;1.88;;;0.85;;
62880;SDS011;48969;49.934;8.596;2023-03-16T04:10:49;1.35;;;1.20;;
62880;SDS011;48969;49.934;8.596;2023-03-16T04:13:14;1.58;;;1.48;;
62880;SDS011;48969;49.934;8.596;2023-03-16T04:15:39;0.80;;;0.80;;
62880;SDS011;48969;49.934;8.596;2023-03-16T04:18:04;1.63;;;1.53;;
62880;SDS011;48969;49.934;8.596;2023-03-16T04:20:30;1.27;;;0.82;;
62880;SDS011;48969;49.934;8.596;2023-03-16T04:22:55;1.56;;;1.44;;
62880;SDS011;48969;49.934;8.596;2023-03-16T04:25:22;1.80;;;1.70;;
62880;SDS011;48969;49.934;8.596;2023-03-16T04:27:49;1.60;;;1.50;;
62880;SDS011;48969;49.934;8.596;2023-03-16T04:30:15;1.05;;;0.95;;
62880;SDS011;48969;49.934;8.596;2023-03-16T04:32:40;0.60;;;0.60;;
62880;SDS011;48969;49.934;8.596;2023-03-16T04:35:05;1.80;;;1.50;;
62880;SDS011;48969;49.934;8.596;2023-03-16T04:37:31;1.75;;;1.52;;
62880;SDS011;48969;49.934;8.596;2023-03-16T04:39:56;4.03;;;1.63;;
62880;SDS011;48969;49.934;8.596;2023-03-16T04:42:21;1.30;;;1.23;;
62880;SDS011;48969;49.934;8.596;2023-03-16T04:44:46;1.00;;;0.80;;
62880;SDS011;48969;49.934;8.596;2023-03-16T04:47:13;0.97;;;0.97;;
62880;SDS011;48969;49.934;8.596;2023-03-16T04:49:38;2.23;;;1.60;;
62880;SDS011;48969;49.934;8.596;2023-03-16T04:52:04;5.57;;;2.80;;
62880;SDS011;48969;49.934;8.596;2023-03-16T04:54:30;1.47;;;1.20;;
62880;SDS011;48969;49.934;8.596;2023-03-16T04:56:55;2.27;;;1.50;;
62880;SDS011;48969;49.934;8.596;2023-03-16T04:59:20;2.60;;;1.77;;
62880;SDS011;48969;49.934;8.596;2023-03-16T05:01:45;1.42;;;1.33;;
62880;SDS011;48969;49.934;8.596;2023-03-16T05:04:10;2.97;;;2.03;;
62880;SDS011;48969;49.934;8.596;2023-03-16T05:06:36;4.18;;;2.03;;
62880;SDS011;48969;49.934;8.596;2023-03-16T05:09:01;1.98;;;1.83;;
62880;SDS011;48969;49.934;8.596;2023-03-16T05:11:29;1.95;;;1.85;;
62880;SDS011;48969;49.934;8.596;2023-03-16T05:13:54;2.32;;;2.12;;
62880;SDS011;48969;49.934;8.596;2023-03-16T05:16:19;0.82;;;0.82;;
62880;SDS011;48969;49.934;8.596;2023-03-16T05:18:44;1.96;;;1.12;;
62880;SDS011;48969;49.934;8.596;2023-03-16T05:21:09;2.08;;;1.54;;
62880;SDS011;48969;49.934;8.596;2023-03-16T05:23:34;3.45;;;2.53;;
62880;SDS011;48969;49.934;8.596;2023-03-16T05:25:59;4.45;;;2.05;;
62880;SDS011;48969;49.934;8.596;2023-03-16T05:28:25;1.60;;;1.50;;
62880;SDS011;48969;49.934;8.596;2023-03-16T05:30:50;1.63;;;1.52;;
62880;SDS011;48969;49.934;8.596;2023-03-16T05:33:15;6.18;;;3.28;;
62880;SDS011;48969;49.934;8.596;2023-03-16T05:35:41;2.88;;;2.67;;
62880;SDS011;48969;49.934;8.596;2023-03-16T05:38:07;3.45;;;2.42;;
62880;SDS011;48969;49.934;8.596;2023-03-16T05:40:33;1.65;;;1.55;;
62880;SDS011;48969;49.934;8.596;2023-03-16T05:42:59;4.15;;;1.98;;
62880;SDS011;48969;49.934;8.596;2023-03-16T05:45:24;2.58;;;2.10;;
62880;SDS011;48969;49.934;8.596;2023-03-16T05:47:49;14.80;;;5.03;;
62880;SDS011;48969;49.934;8.596;2023-03-16T05:50:15;2.80;;;1.90;;
62880;SDS011;48969;49.934;8.596;2023-03-16T05:52:41;7.78;;;2.42;;
62880;SDS011;48969;49.934;8.596;2023-03-16T05:55:16;3.38;;;2.97;;
62880;SDS011;48969;49.934;8.596;2023-03-16T05:57:41;2.08;;;1.63;;
62880;SDS011;48969;49.934;8.596;2023-03-16T06:00:09;5.72;;;2.15;;
62880;SDS011;48969;49.934;8.596;2023-03-16T06:02:40;2.40;;;2.00;;
62880;SDS011;48969;49.934;8.596;2023-03-16T06:05:05;3.10;;;1.65;;
62880;SDS011;48969;49.934;8.596;2023-03-16T06:07:31;4.60;;;2.95;;
62880;SDS011;48969;49.934;8.596;2023-03-16T06:09:57;4.57;;;3.80;;
62880;SDS011;48969;49.934;8.596;2023-03-16T06:12:22;4.60;;;2.60;;
62880;SDS011;48969;49.934;8.596;2023-03-16T06:14:47;3.78;;;2.47;;
62880;SDS011;48969;49.934;8.596;2023-03-16T06:17:12;3.28;;;2.00;;
62880;SDS011;48969;49.934;8.596;2023-03-16T06:19:38;2.80;;;1.95;;
62880;SDS011;48969;49.934;8.596;2023-03-16T06:22:03;1.30;;;1.13;;
62880;SDS011;48969;49.934;8.596;2023-03-16T06:24:28;8.10;;;2.55;;
62880;SDS011;48969;49.934;8.596;2023-03-16T06:26:53;1.70;;;1.60;;
62880;SDS011;48969;49.934;8.596;2023-03-16T06:29:19;2.33;;;2.13;;
62880;SDS011;48969;49.934;8.596;2023-03-16T06:31:44;4.20;;;2.20;;
62880;SDS011;48969;49.934;8.596;2023-03-16T06:34:15;2.35;;;1.38;;
62880;SDS011;48969;49.934;8.596;2023-03-16T06:36:40;16.13;;;2.80;;
62880;SDS011;48969;49.934;8.596;2023-03-16T06:39:05;1.13;;;1.02;;
62880;SDS011;48969;49.934;8.596;2023-03-16T06:41:33;3.90;;;2.30;;
62880;SDS011;48969;49.934;8.596;2023-03-16T06:43:59;5.25;;;2.45;;
62880;SDS011;48969;49.934;8.596;2023-03-16T06:46:25;2.83;;;2.60;;
62880;SDS011;48969;49.934;8.596;2023-03-16T06:48:50;2.12;;;1.64;;
62880;SDS011;48969;49.934;8.596;2023-03-16T06:51:15;2.22;;;1.92;;
62880;SDS011;48969;49.934;8.596;2023-03-16T06:53:40;5.07;;;1.48;;
62880;SDS011;48969;49.934;8.596;2023-03-16T06:56:06;0.73;;;0.73;;
62880;SDS011;48969;49.934;8.596;2023-03-16T06:58:31;2.55;;;1.05;;
62880;SDS011;48969;49.934;8.596;2023-03-16T07:00:59;2.42;;;2.22;;
62880;SDS011;48969;49.934;8.596;2023-03-16T07:03:24;2.13;;;1.92;;
62880;SDS011;48969;49.934;8.596;2023-03-16T07:05:49;6.36;;;1.36;;
62880;SDS011;48969;49.934;8.596;2023-03-16T07:08:15;2.30;;;1.77;;
62880;SDS011;48969;49.934;8.596;2023-03-16T07:10:40;2.58;;;2.20;;
62880;SDS011;48969;49.934;8.596;2023-03-16T07:13:06;1.58;;;1.48;;
62880;SDS011;48969;49.934;8.596;2023-03-16T07:15:31;1.72;;;1.62;;
62880;SDS011;48969;49.934;8.596;2023-03-16T07:17:56;2.74;;;1.22;;
62880;SDS011;48969;49.934;8.596;2023-03-16T07:20:24;2.65;;;2.22;;
62880;SDS011;48969;49.934;8.596;2023-03-16T07:22:50;3.42;;;2.17;;
62880;SDS011;48969;49.934;8.596;2023-03-16T07:25:16;0.20;;;0.20;;
62880;SDS011;48969;49.934;8.596;2023-03-16T07:27:41;4.13;;;1.30;;
62880;SDS011;48969;49.934;8.596;2023-03-16T07:30:08;1.40;;;1.40;;
62880;SDS011;48969;49.934;8.596;2023-03-16T07:32:36;1.50;;;1.40;;
62880;SDS011;48969;49.934;8.596;2023-03-16T07:35:01;1.80;;;1.33;;
62880;SDS011;48969;49.934;8.596;2023-03-16T07:37:26;1.40;;;1.13;;
62880;SDS011;48969;49.934;8.596;2023-03-16T07:39:52;1.00;;;0.98;;
62880;SDS011;48969;49.934;8.596;2023-03-16T07:42:17;1.85;;;1.75;;
62880;SDS011;48969;49.934;8.596;2023-03-16T07:44:43;0.47;;;0.47;;
62880;SDS011;48969;49.934;8.596;2023-03-16T07:47:11;11.44;;;9.42;;
62880;SDS011;48969;49.934;8.596;2023-03-16T07:49:36;3.33;;;2.20;;
62880;SDS011;48969;49.934;8.596;2023-03-16T07:52:01;2.90;;;2.28;;
62880;SDS011;48969;49.934;8.596;2023-03-16T07:54:27;1.27;;;1.17;;
62880;SDS011;48969;49.934;8.596;2023-03-16T07:56:52;3.22;;;2.95;;
62880;SDS011;48969;49.934;8.596;2023-03-16T07:59:18;9.43;;;3.15;;
62880;SDS011;48969;49.934;8.596;2023-03-16T08:01:45;1.20;;;1.10;;
62880;SDS011;48969;49.934;8.596;2023-03-16T08:04:11;2.38;;;2.17;;
62880;SDS011;48969;49.934;8.596;2023-03-16T08:06:36;0.98;;;0.93;;
62880;SDS011;48969;49.934;8.596;2023-03-16T08:09:02;3.38;;;2.40;;
62880;SDS011;48969;49.934;8.596;2023-03-16T08:11:27;3.38;;;1.92;;
62880;SDS011;48969;49.934;8.596;2023-03-16T08:13:53;10.45;;;9.35;;
62880;SDS011;48969;49.934;8.596;2023-03-16T08:16:20;2.08;;;0.98;;
62880;SDS011;48969;49.934;8.596;2023-03-16T08:18:46;3.13;;;1.92;;
62880;SDS011;48969;49.934;8.596;2023-03-16T08:21:11;2.08;;;1.17;;
62880;SDS011;48969;49.934;8.596;2023-03-16T08:23:36;3.13;;;2.22;;
62880;SDS011;48969;49.934;8.596;2023-03-16T08:26:03;1.24;;;0.96;;
62880;SDS011;48969;49.934;8.596;2023-03-16T08:28:32;10.25;;;9.25;;
62880;SDS011;48969;49.934;8.596;2023-03-16T08:30:58;9.57;;;8.57;;
62880;SDS011;48969;49.934;8.596;2023-03-16T08:33:23;1.90;;;1.23;;
62880;SDS011;48969;49.934;8.596;2023-03-16T08:35:48;2.44;;;1.68;;
62880;SDS011;48969;49.934;8.596;2023-03-16T08:38:13;4.35;;;1.92;;
62880;SDS011;48969;49.934;8.596;2023-03-16T08:40:40;9.98;;;8.40;;
62880;SDS011;48969;49.934;8.596;2023-03-16T08:43:14;2.63;;;1.98;;
62880;SDS011;48969;49.934;8.596;2023-03-16T08:45:40;2.78;;;2.08;;
62880;SDS011;48969;49.934;8.596;2023-03-16T08:48:06;2.83;;;2.35;;
62880;SDS011;48969;49.934;8.596;2023-03-16T08:50:31;4.18;;;2.25;;
62880;SDS011;48969;49.934;8.596;2023-03-16T08:52:57;3.13;;;2.10;;
62880;SDS011;48969;49.934;8.596;2023-03-16T08:55:23;4.13;;;2.88;;
62880;SDS011;48969;49.934;8.596;2023-03-16T08:57:48;9.85;;;8.65;;
62880;SDS011;48969;49.934;8.596;2023-03-16T09:00:14;9.20;;;7.60;;
62880;SDS011;48969;49.934;8.596;2023-03-16T09:02:40;2.42;;;0.82;;
62880;SDS011;48969;49.934;8.596;2023-03-16T09:05:07;8.98;;;8.07;;
62880;SDS011;48969;49.934;8.596;2023-03-16T09:07:33;9.25;;;8.07;;
62880;SDS011;48969;49.934;8.596;2023-03-16T09:10:00;4.55;;;2.58;;
62880;SDS011;48969;49.934;8.596;2023-03-16T09:12:25;9.70;;;8.75;;
62880;SDS011;48969;49.934;8.596;2023-03-16T09:14:50;8.05;;;2.60;;
62880;SDS011;48969;49.934;8.596;2023-03-16T09:17:15;4.40;;;2.83;;
62880;SDS011;48969;49.934;8.596;2023-03-16T09:19:44;9.20;;;7.90;;
62880;SDS011;48969;49.934;8.596;2023-03-16T09:22:10;8.52;;;7.53;;
62880;SDS011;48969;49.934;8.596;2023-03-16T09:24:35;3.53;;;2.47;;
62880;SDS011;48969;49.934;8.596;2023-03-16T09:27:01;9.25;;;7.70;;
62880;SDS011;48969;49.934;8.596;2023-03-16T09:29:26;8.93;;;7.60;;
62880;SDS011;48969;49.934;8.596;2023-03-16T09:31:52;1.88;;;1.67;;
62880;SDS011;48969;49.934;8.596;2023-03-16T09:34:17;8.52;;;7.63;;
62880;SDS011;48969;49.934;8.596;2023-03-16T09:36:43;2.83;;;2.28;;
62880;SDS011;48969;49.934;8.596;2023-03-16T09:39:08;8.75;;;7.85;;
62880;SDS011;48969;49.934;8.596;2023-03-16T09:46:58;9.02;;;8.13;;
62880;SDS011;48969;49.934;8.596;2023-03-16T09:49:26;8.20;;;7.40;;
62880;SDS011;48969;49.934;8.596;2023-03-16T10:02:46;8.65;;;7.30;;
62880;SDS011;48969;49.934;8.596;2023-03-16T10:05:16;9.15;;;7.22;;
62880;SDS011;48969;49.934;8.596;2023-03-16T10:08:30;8.48;;;7.43;;
62880;SDS011;48969;49.934;8.596;2023-03-16T10:12:58;8.23;;;7.22;;
62880;SDS011;48969;49.934;8.596;2023-03-16T10:15:25;7.80;;;7.00;;
62880;SDS011;48969;49.934;8.596;2023-03-16T10:17:56;5.45;;;1.92;;
62880;SDS011;48969;49.934;8.596;2023-03-16T10:20:23;7.45;;;6.72;;
62880;SDS011;48969;49.934;8.596;2023-03-16T10:22:50;2.90;;;2.55;;
62880;SDS011;48969;49.934;8.596;2023-03-16T10:25:42;7.80;;;7.00;;
62880;SDS011;48969;49.934;8.596;2023-03-16T10:28:15;10.05;;;7.97;;
62880;SDS011;48969;49.934;8.596;2023-03-16T10:30:41;8.90;;;7.30;;
62880;SDS011;48969;49.934;8.596;2023-03-16T10:33:21;8.85;;;7.45;;
62880;SDS011;48969;49.934;8.596;2023-03-16T10:35:52;8.93;;;7.05;;
62880;SDS011;48969;49.934;8.596;2023-03-16T10:40:51;7.50;;;6.75;;
62880;SDS011;48969;49.934;8.596;2023-03-16T10:43:16;7.70;;;6.82;;
62880;SDS011;48969;49.934;8.596;2023-03-16T10:45:42;7.45;;;6.53;;
62880;SDS011;48969;49.934;8.596;2023-03-16T10:48:14;7.28;;;6.50;;
62880;SDS011;48969;49.934;8.596;2023-03-16T10:50:43;7.80;;;6.97;;
62880;SDS011;48969;49.934;8.596;2023-03-16T10:53:15;7.57;;;6.35;;
62880;SDS011;48969;49.934;8.596;2023-03-16T10:55:42;7.97;;;6.72;;
62880;SDS011;48969;49.934;8.596;2023-03-16T10:58:09;7.15;;;6.45;;
62880;SDS011;48969;49.934;8.596;2023-03-16T11:00:35;9.05;;;7.05;;
62880;SDS011;48969;49.934;8.596;2023-03-16T11:03:01;9.48;;;7.43;;
62880;SDS011;48969;49.934;8.596;2023-03-16T11:05:36;8.60;;;7.70;;
62880;SDS011;48969;49.934;8.596;2023-03-16T11:08:17;8.05;;;7.00;;
62880;SDS011;48969;49.934;8.596;2023-03-16T11:10:45;8.15;;;6.63;;
62880;SDS011;48969;49.934;8.596;2023-03-16T11:13:14;9.68;;;8.05;;
62880;SDS011;48969;49.934;8.596;2023-03-16T11:15:46;8.77;;;6.82;;
62880;SDS011;48969;49.934;8.596;2023-03-16T11:18:20;8.55;;;7.10;;
62880;SDS011;48969;49.934;8.596;2023-03-16T11:20:46;8.23;;;6.30;;
62880;SDS011;48969;49.934;8.596;2023-03-16T11:23:11;7.82;;;6.82;;
62880;SDS011;48969;49.934;8.596;2023-03-16T11:25:42;8.55;;;6.55;;
62880;SDS011;48969;49.934;8.596;2023-03-16T11:28:13;7.57;;;6.63;;
62880;SDS011;48969;49.934;8.596;2023-03-16T11:30:48;9.25;;;7.00;;
62880;SDS011;48969;49.934;8.596;2023-03-16T11:33:15;9.20;;;6.40;;
62880;SDS011;48969;49.934;8.596;2023-03-16T11:38:40;6.68;;;5.97;;
62880;SDS011;48969;49.934;8.596;2023-03-16T11:41:21;9.48;;;5.70;;
62880;SDS011;48969;49.934;8.596;2023-03-16T11:44:07;8.05;;;5.60;;
62880;SDS011;48969;49.934;8.596;2023-03-16T11:46:50;8.40;;;6.32;;
62880;SDS011;48969;49.934;8.596;2023-03-16T11:49:26;7.93;;;6.25;;
62880;SDS011;48969;49.934;8.596;2023-03-16T11:52:02;7.93;;;6.18;;
62880;SDS011;48969;49.934;8.596;2023-03-16T11:54:46;7.50;;;5.47;;
62880;SDS011;48969;49.934;8.596;2023-03-16T12:10:21;7.78;;;5.78;;
62880;SDS011;48969;49.934;8.596;2023-03-16T12:15:22;8.05;;;6.10;;
62880;SDS011;48969;49.934;8.596;2023-03-16T12:17:55;7.80;;;6.07;;
62880;SDS011;48969;49.934;8.596;2023-03-16T12:20:23;7.63;;;5.40;;
62880;SDS011;48969;49.934;8.596;2023-03-16T12:23:07;7.10;;;5.10;;
62880;SDS011;48969;49.934;8.596;2023-03-16T12:25:35;4.80;;;3.40;;
62880;SDS011;48969;49.934;8.596;2023-03-16T12:28:02;5.60;;;3.72;;
62880;SDS011;48969;49.934;8.596;2023-03-16T12:33:02;7.55;;;5.28;;
62880;SDS011;48969;49.934;8.596;2023-03-16T12:35:35;6.80;;;5.72;;
62880;SDS011;48969;49.934;8.596;2023-03-16T12:38:12;7.28;;;5.80;;
62880;SDS011;48969;49.934;8.596;2023-03-16T12:40:52;6.20;;;5.40;;
62880;SDS011;48969;49.934;8.596;2023-03-16T12:48:47;7.70;;;4.80;;
62880;SDS011;48969;49.934;8.596;2023-03-16T12:51:13;6.03;;;4.10;;
62880;SDS011;48969;49.934;8.596;2023-03-16T12:56:06;7.40;;;4.50;;
62880;SDS011;48969;49.934;8.596;2023-03-16T12:58:34;5.78;;;4.93;;
62880;SDS011;48969;49.934;8.596;2023-03-16T13:00:59;5.20;;;4.63;;
62880;SDS011;48969;49.934;8.596;2023-03-16T13:03:25;5.63;;;4.27;;
62880;SDS011;48969;49.934;8.596;2023-03-16T13:05:54;5.10;;;3.47;;
62880;SDS011;48969;49.934;8.596;2023-03-16T13:08:20;3.95;;;3.40;;
62880;SDS011;48969;49.934;8.596;2023-03-16T13:13:24;5.07;;;3.42;;
62880;SDS011;48969;49.934;8.596;2023-03-16T13:15:59;3.90;;;3.05;;
62880;SDS011;48969;49.934;8.596;2023-03-16T13:18:32;3.83;;;2.83;;
62880;SDS011;48969;49.934;8.596;2023-03-16T13:20:59;3.22;;;2.10;;
62880;SDS011;48969;49.934;8.596;2023-03-16T13:23:50;2.88;;;1.70;;
62880;SDS011;48969;49.934;8.596;2023-03-16T13:28:37;2.55;;;2.22;;
62880;SDS011;48969;49.934;8.596;2023-03-16T13:31:03;3.70;;;2.30;;
62880;SDS011;48969;49.934;8.596;2023-03-16T13:33:30;2.47;;;1.75;;
62880;SDS011;48969;49.934;8.596;2023-03-16T13:35:58;2.83;;;2.00;;
62880;SDS011;48969;49.934;8.596;2023-03-16T13:38:24;2.38;;;1.60;;
62880;SDS011;48969;49.934;8.596;2023-03-16T13:40:52;3.22;;;1.70;;
62880;SDS011;48969;49.934;8.596;2023-03-16T13:43:22;3.47;;;1.77;;
62880;SDS011;48969;49.934;8.596;2023-03-16T13:45:47;3.45;;;1.90;;
62880;SDS011;48969;49.934;8.596;2023-03-16T13:48:13;3.17;;;1.85;;
62880;SDS011;48969;49.934;8.596;2023-03-16T13:50:38;2.15;;;1.83;;
62880;SDS011;48969;49.934;8.596;2023-03-16T13:53:16;3.25;;;1.90;;
62880;SDS011;48969;49.934;8.596;2023-03-16T13:55:49;2.55;;;1.80;;
62880;SDS011;48969;49.934;8.596;2023-03-16T13:58:22;1.90;;;1.70;;
62880;SDS011;48969;49.934;8.596;2023-03-16T14:00:48;2.70;;;1.40;;
62880;SDS011;48969;49.934;8.596;2023-03-16T14:03:15;2.50;;;1.15;;
62880;SDS011;48969;49.934;8.596;2023-03-16T14:05:41;2.47;;;1.63;;
62880;SDS011;48969;49.934;8.596;2023-03-16T14:08:20;3.08;;;1.67;;
62880;SDS011;48969;49.934;8.596;2023-03-16T14:10:47;2.95;;;1.60;;
62880;SDS011;48969;49.934;8.596;2023-03-16T14:15:54;1.83;;;1.55;;
62880;SDS011;48969;49.934;8.596;2023-03-16T14:18:21;1.88;;;1.30;;
62880;SDS011;48969;49.934;8.596;2023-03-16T14:20:51;3.20;;;1.88;;
62880;SDS011;48969;49.934;8.596;2023-03-16T14:23:21;3.60;;;1.67;;
62880;SDS011;48969;49.934;8.596;2023-03-16T14:25:48;3.47;;;2.00;;
62880;SDS011;48969;49.934;8.596;2023-03-16T14:28:14;2.78;;;1.50;;
62880;SDS011;48969;49.934;8.596;2023-03-16T14:30:51;2.92;;;1.52;;
62880;SDS011;48969;49.934;8.596;2023-03-16T14:33:27;3.25;;;1.45;;
62880;SDS011;48969;49.934;8.596;2023-03-16T14:35:54;2.30;;;1.30;;
62880;SDS011;48969;49.934;8.596;2023-03-16T14:40:52;2.67;;;1.60;;
62880;SDS011;48969;49.934;8.596;2023-03-16T14:43:18;1.95;;;1.48;;
62880;SDS011;48969;49.934;8.596;2023-03-16T14:45:45;11.15;;;4.45;;
62880;SDS011;48969;49.934;8.596;2023-03-16T14:48:14;11.55;;;4.57;;
62880;SDS011;48969;49.934;8.596;2023-03-16T14:50:51;7.03;;;3.25;;
62880;SDS011;48969;49.934;8.596;2023-03-16T14:53:18;2.80;;;1.95;;
62880;SDS011;48969;49.934;8.596;2023-03-16T14:55:43;7.10;;;3.20;;
62880;SDS011;48969;49.934;8.596;2023-03-16T14:58:08;2.40;;;1.75;;
62880;SDS011;48969;49.934;8.596;2023-03-16T15:00:34;3.65;;;1.70;;
62880;SDS011;48969;49.934;8.596;2023-03-16T15:03:02;3.30;;;1.58;;
62880;SDS011;48969;49.934;8.596;2023-03-16T15:05:29;2.40;;;1.60;;
62880;SDS011;48969;49.934;8.596;2023-03-16T15:07:55;2.85;;;1.80;;
62880;SDS011;48969;49.934;8.596;2023-03-16T15:12:46;2.97;;;1.83;;
62880;SDS011;48969;49.934;8.596;2023-03-16T15:15:18;2.55;;;1.35;;
62880;SDS011;48969;49.934;8.596;2023-03-16T15:17:44;2.00;;;1.45;;
62880;SDS011;48969;49.934;8.596;2023-03-16T15:20:17;2.28;;;1.30;;
62880;SDS011;48969;49.934;8.596;2023-03-16T15:22:43;2.60;;;1.50;;
62880;SDS011;48969;49.934;8.596;2023-03-16T15:25:17;2.70;;;1.75;;
62880;SDS011;48969;49.934;8.596;2023-03-16T15:27:44;4.32;;;2.08;;
62880;SDS011;48969;49.934;8.596;2023-03-16T15:30:18;5.30;;;2.78;;
62880;SDS011;48969;49.934;8.596;2023-03-16T15:32:44;5.45;;;2.30;;
62880;SDS011;48969;49.934;8.596;2023-03-16T15:35:11;2.15;;;1.50;;
62880;SDS011;48969;49.934;8.596;2023-03-16T15:37:37;3.03;;;1.77;;
62880;SDS011;48969;49.934;8.596;2023-03-16T15:40:12;2.28;;;1.77;;
62880;SDS011;48969;49.934;8.596;2023-03-16T15:42:39;3.50;;;1.90;;
62880;SDS011;48969;49.934;8.596;2023-03-16T15:45:07;3.63;;;1.92;;
62880;SDS011;48969;49.934;8.596;2023-03-16T15:47:34;3.60;;;2.13;;
62880;SDS011;48969;49.934;8.596;2023-03-16T15:50:00;2.72;;;1.63;;
62880;SDS011;48969;49.934;8.596;2023-03-16T15:52:27;2.95;;;2.20;;
62880;SDS011;48969;49.934;8.596;2023-03-16T15:54:54;3.03;;;1.70;;